Nearby METAR Reports

 

ENCN - Kristiansand/Kje, Norway
Distance from station: N 17km
Oppdatert: 22/01/2022 17:20
Klart
Klart
 Vind fra varies
Vind: varies 4 km/h
Temperatur: 2°C
Duggpunkt: 1°C
Fuktighet: 93%
Barometer: 1025 hPa
Oversikt: Klart
Visibility: greater than 10 km
2022/01/22 16:20 ENCN 221620Z VRB02KT CAVOK 02/01 Q1025
EKSN - Sindal Airport, Denmark
Distance from station: ØSØ 145km
Oppdatert: 30/12/2021 14:50
NOT Current
Mist, Hovedsaklig skyet
Mist, Hovedsaklig skyet
 Vind fra SV
Vind: SV 26 km/h
Temperatur: 7°C
Wind Chill: 3°C
Duggpunkt: 7°C
Fuktighet: 100%
Barometer: 999 hPa
Oversikt: Mist
Clouds: Hovedsaklig skyet
Visibility: 5 km
Cloud details: Delvis skyet 183 m
Hovedsaklig skyet 244 m
2021/12/30 13:50 EKSN 301350Z 23014KT 4500 BR SCT006 BKN008 07/07 Q0999
 
EKYT - Alborg, Denmark
Distance from station: SØ 153km
Oppdatert: 22/01/2022 17:20
Klart
Klart
 Vind fra V
Vind: V 11 km/h
Temperatur: 3°C
Wind Chill: 0°C
Duggpunkt: 3°C
Fuktighet: 100%
Barometer: 1024 hPa
Oversikt: Klart
Visibility: greater than 10 km
2022/01/22 16:20 EKYT 221620Z 27006KT CAVOK 03/03 Q1024
ENSN - Skien/Geiterygge, Norway
Distance from station: NØ 153km
Oppdatert: 09/11/2015 09:50
NOT Current
Klart
Klart
 Vind fra SSV
Vind: SSV 19 km/h, Vindkast: 41 km/h
Temperatur: 7°C
Wind Chill: 4°C
Duggpunkt: 3°C
Fuktighet: 76%
Barometer: 1000 hPa
Oversikt: Klart
Visibility: greater than 10 km
2015/11/09 08:50 ENSN 090850Z 20010G22KT 150V240 CAVOK 07/03 Q1000
 
ENZV - Stavanger/Sola(A, Norway
Distance from station: NV 166km
Oppdatert: 22/01/2022 17:20
Yr, Mist, Overskyet
Yr, Mist, Overskyet
 Vind fra VNV
Vind: VNV 20 km/h
Temperatur: 7°C
Wind Chill: 4°C
Duggpunkt: 7°C
Fuktighet: 100%
Barometer: 1027 hPa
Oversikt: Yr, Mist
Clouds: Overskyet
Visibility: 3 km
Cloud details: Overskyet 61 m
2022/01/22 16:20 ENZV 221620Z 30011KT 2600 -DZ BR VV002 07/07 Q1027 TEMPO 1200 -DZ BR
ENNO - Notodden, Norway
Distance from station: NNØ 182km
Oppdatert: 22/01/2022 16:50
Klart
Klart
 Vind fra calm
Vind: Stille
Temperatur: -5°C
Duggpunkt: -6°C
Fuktighet: 93%
Barometer: 1024 hPa
Oversikt: Klart
Visibility: greater than 10 km
2022/01/22 15:50 ENNO 221550Z 00000KT CAVOK M05/M06 Q1024
 
ENTO - Torp (civ/Nor-Af, Norway
Distance from station: NØ 183km
Oppdatert: 22/01/2022 17:20
Klart
Klart
 Vind fra S
Vind: S 7 km/h
Temperatur: 2°C
Wind Chill: 0°C
Duggpunkt: 2°C
Fuktighet: 100%
Barometer: 1023 hPa
Oversikt: Klart
Visibility: greater than 10 km
2022/01/22 16:20 ENTO 221620Z 19004KT 150V220 CAVOK 02/02 Q1023 NOSIG
EKKA - Karup (dan-Afb), Denmark
Distance from station: SSØ 209km
Oppdatert: 22/01/2022 17:20
Lett regn, Mist, Hovedsaklig skyet
Lett regn, Mist, Hovedsaklig skyet
 Vind fra VNV
Vind: VNV 17 km/h
Temperatur: 6°C
Wind Chill: 3°C
Duggpunkt: 5°C
Fuktighet: 93%
Barometer: 1026 hPa
Oversikt: Lett regn, Mist
Clouds: Hovedsaklig skyet
Visibility: 3 km
Cloud details: Hovedsaklig skyet 183 m
2022/01/22 16:20 EKKA 221620Z AUTO 30009KT 3100 -RA BR BKN006/// 06/05 Q1026
 
ENHD - Haugesund/Karmoy, Norway
Distance from station: NV 216km
Oppdatert: 22/01/2022 17:20
Tåke, Overskyet
Tåke, Overskyet
 Vind fra V
Vind: V 9 km/h
Temperatur: 7°C
Wind Chill: 6°C
Duggpunkt: 7°C
Fuktighet: 100%
Barometer: 1027 hPa
Oversikt: Tåke
Clouds: Overskyet
Visibility: 0 km
Cloud details: Overskyet 61 m
2022/01/22 16:20 ENHD 221620Z 26005KT 0250 R13/1000N R31/1400U FG VV002 07/07 Q1027
ENRY - Rygge (nor-Afb), Norway
Distance from station: NØ 216km
Oppdatert: 22/01/2022 17:20
Few Clouds
Few Clouds
 Vind fra SØ
Vind: SØ 7 km/h
Temperatur: 0°C
Wind Chill: -3°C
Duggpunkt: -1°C
Fuktighet: 93%
Barometer: 1023 hPa
Clouds: Few Clouds
Visibility: 10 km
Cloud details: Few Clouds 274 m
2022/01/22 16:20 ENRY 221620Z AUTO 14004KT 9999NDV FEW009/// 00/M01 Q1023
 
ESGP - Goteborg/Save (a, Sweden
Distance from station: Ø 230km
Oppdatert: 22/01/2022 17:20
Mist, Overskyet
Mist, Overskyet
 Vind fra S
Vind: S 9 km/h
Temperatur: 3°C
Wind Chill: 0°C
Duggpunkt: 2°C
Fuktighet: 93%
Barometer: 1024 hPa
Oversikt: Mist
Clouds: Overskyet
Visibility: 5 km
Cloud details: Overskyet 91 m
2022/01/22 16:20 ESGP 221620Z 17005KT 5000 BR OVC003 03/02 Q1024
EKVJ - Stauning Airport, Denmark
Distance from station: S 233km
Oppdatert: 21/01/2022 16:20
NOT Current
Hovedsaklig skyet
Hovedsaklig skyet
 Vind fra NV
Vind: NV 15 km/h
Temperatur: 6°C
Wind Chill: 3°C
Duggpunkt: 5°C
Fuktighet: 93%
Barometer: 1022 hPa
Clouds: Hovedsaklig skyet
Visibility: 8 km
Cloud details: Delvis skyet 152 m
Hovedsaklig skyet 244 m
2022/01/21 15:20 EKVJ 211520Z 31008KT 8000 SCT005 BKN008 06/05 Q1022
 
ENSO - Stord/Soerstokke, Norway
Distance from station: NV 246km
Oppdatert: 21/01/2022 19:20
NOT Current
Lett regn, Mist, Hovedsaklig skyet
Lett regn, Mist, Hovedsaklig skyet
 Vind fra NV
Vind: NV 22 km/h
Temperatur: 7°C
Wind Chill: 4°C
Duggpunkt: 7°C
Fuktighet: 100%
Barometer: 1024 hPa
Oversikt: Lett regn, Mist
Clouds: Hovedsaklig skyet
Visibility: 5 km
Cloud details: Delvis skyet 91 m
Hovedsaklig skyet 152 m
2022/01/21 18:20 ENSO 211820Z 31012KT 5000 -RA BR SCT003 BKN005 07/07 Q1024
EKAH - Tirstrup (civ/Mi, Denmark
Distance from station: SØ 252km
Oppdatert: 22/01/2022 17:20
Hovedsaklig skyet
Hovedsaklig skyet
 Vind fra V
Vind: V 15 km/h
Temperatur: 6°C
Wind Chill: 3°C
Duggpunkt: 5°C
Fuktighet: 93%
Barometer: 1026 hPa
Clouds: Hovedsaklig skyet
Visibility: 10 km
Cloud details: Hovedsaklig skyet 213 m
2022/01/22 16:20 EKAH 221620Z AUTO 27008KT 9999 BKN007/// 06/05 Q1026
 
ESGT - Trollhattan (pvt, Sweden
Distance from station: Ø 255km
Oppdatert: 22/01/2022 17:20
Overskyet
Overskyet
 Vind fra SSV
Vind: SSV 9 km/h
Temperatur: 2°C
Wind Chill: -1°C
Duggpunkt: 0°C
Fuktighet: 87%
Barometer: 1024 hPa
Clouds: Overskyet
Visibility: 10 km
Cloud details: Hovedsaklig skyet 152 m
Overskyet 213 m
2022/01/22 16:20 ESGT 221620Z AUTO 20005KT 9999 BKN005/// OVC007/// 02/M00 Q1024
ESGG - Goteborg/Landvet, Sweden
Distance from station: Ø 257km
Oppdatert: 22/01/2022 17:20
Mist, Hovedsaklig skyet
Mist, Hovedsaklig skyet
 Vind fra S
Vind: S 9 km/h
Temperatur: 0°C
Wind Chill: -3°C
Duggpunkt: -1°C
Fuktighet: 93%
Barometer: 1024 hPa
Oversikt: Mist
Clouds: Hovedsaklig skyet
Visibility: 3 km
Cloud details: Hovedsaklig skyet 91 m
2022/01/22 16:20 ESGG 221620Z 18005KT 2600 BR BKN003 00/M01 Q1024
 
EKBI - Billund Airport, Denmark
Distance from station: SSØ 269km
Oppdatert: 22/01/2022 17:20
Overskyet
Overskyet
 Vind fra VNV
Vind: VNV 20 km/h
Temperatur: 6°C
Wind Chill: 2°C
Duggpunkt: 6°C
Fuktighet: 100%
Barometer: 1027 hPa
Clouds: Overskyet
Visibility: 10 km
Cloud details: Overskyet 244 m
2022/01/22 16:20 EKBI 221620Z AUTO 30011KT 9999 OVC008/// 06/06 Q1027
EKHN - Horns Rev B Heli, Denmark
Distance from station: S 274km
Oppdatert: 09/08/2016 14:20
NOT Current
Few Clouds
Few Clouds
 Vind fra VNV
Vind: VNV 50 km/h, Vindkast: 72 km/h
Temperatur: 14°C
Duggpunkt: 10°C
Fuktighet: 77%
Barometer: 1018 hPa
Clouds: Few Clouds
Visibility: 10 km
Cloud details: Few Clouds 1158 m
Few Clouds 2438 m
2016/08/09 12:20 EKHN 091220Z AUTO 29027G39KT 270V340 9999NDV FEW038/// FEW080/// 14/10 Q1018
 
ESIB - Satenas (swe-Afb, Sweden
Distance from station: Ø 277km
Oppdatert: 22/01/2022 17:20
Overskyet
Overskyet
 Vind fra S
Vind: S 9 km/h
Temperatur: 1°C
Wind Chill: -2°C
Duggpunkt: -3°C
Fuktighet: 75%
Barometer: 1023 hPa
Clouds: Overskyet
Visibility: 10 km
Cloud details: Overskyet 274 m
2022/01/22 16:20 ESIB 221620Z AUTO 17005KT 9999 OVC009/// 01/M03 Q1023
EKHR - Horns Rev B Heli, Denmark
Distance from station: S 282km
Oppdatert: 04/10/2016 06:20
NOT Current
Klart
Klart
 Vind fra Ø
Vind: Ø 4 km/h
Temperatur: 11°C
Duggpunkt: -49°C
Fuktighet: 0%
Barometer: 1038 hPa
Clouds: Klart
Visibility: 10 km
2016/10/04 04:20 EKHR 040420Z AUTO 08002KT 9999NDV NCD 11/M49 Q1038